Time;durP1;ratioP1;P1;durP2;ratioP2;P2;SDS_P1;SDS_P2;PMS_P1;PMS_P2;Temp;Humidity;BMP_temperature;BMP_pressure;BME280_temperature;BME280_humidity;BME280_pressure;Samples;Min_cycle;Max_cycle;Signal;HPM_P1;HPM_P2
2022/03/20 00:01:47;;;;;;;2.23;2.13;;;5.40;99.90;;;;;;5031961;28;20236;-70
2022/03/20 00:04:12;;;;;;;0.80;0.63;;;5.40;99.90;;;;;;5031554;28;20210;-70
2022/03/20 00:06:38;;;;;;;0.90;0.90;;;5.40;99.90;;;;;;5030460;28;20179;-70
2022/03/20 00:09:03;;;;;;;0.80;0.70;;;5.40;99.90;;;;;;5031739;28;20189;-70
2022/03/20 00:11:29;;;;;;;0.70;0.50;;;5.40;99.90;;;;;;5031770;28;20310;-70
2022/03/20 00:13:54;;;;;;;1.30;1.20;;;5.40;99.90;;;;;;5030279;28;20598;-70
2022/03/20 00:16:21;;;;;;;0.80;0.80;;;5.40;99.90;;;;;;5030868;28;20652;-70
2022/03/20 00:18:47;;;;;;;0.73;0.70;;;5.40;99.90;;;;;;5031854;28;20194;-70
2022/03/20 00:21:13;;;;;;;1.43;0.80;;;5.40;99.90;;;;;;5031709;28;20402;-70
2022/03/20 00:23:39;;;;;;;0.80;0.77;;;5.40;99.90;;;;;;5033025;28;20193;-70
2022/03/20 00:26:05;;;;;;;3.83;2.80;;;5.40;99.90;;;;;;5035619;28;20501;-70
2022/03/20 00:28:31;;;;;;;0.93;0.87;;;5.30;99.90;;;;;;5035383;28;20218;-70
2022/03/20 00:30:57;;;;;;;0.80;0.70;;;5.30;99.90;;;;;;5034165;28;20486;-70
2022/03/20 00:33:23;;;;;;;0.80;0.60;;;5.30;99.90;;;;;;5035125;28;20178;-70
2022/03/20 00:35:48;;;;;;;2.40;2.20;;;5.30;99.90;;;;;;5035361;28;20414;-70
2022/03/20 00:38:14;;;;;;;0.70;0.50;;;5.30;99.90;;;;;;5035534;28;20163;-69
2022/03/20 00:40:40;;;;;;;1.00;0.90;;;5.20;99.90;;;;;;5035319;28;20297;-70
2022/03/20 00:43:06;;;;;;;1.30;1.17;;;5.20;99.90;;;;;;5035503;28;20258;-70
2022/03/20 00:45:33;;;;;;;0.80;0.73;;;5.10;99.90;;;;;;5033530;28;20605;-70
2022/03/20 00:47:59;;;;;;;1.10;1.00;;;5.10;99.90;;;;;;5035242;28;20444;-70
2022/03/20 00:50:25;;;;;;;0.80;0.70;;;5.00;99.90;;;;;;5035208;28;20442;-70
2022/03/20 00:52:51;;;;;;;1.10;0.97;;;5.00;99.90;;;;;;5035039;28;20753;-70
2022/03/20 00:55:16;;;;;;;0.80;0.70;;;5.00;99.90;;;;;;5034537;28;20487;-70
2022/03/20 00:57:42;;;;;;;1.07;1.07;;;4.90;99.90;;;;;;5035278;28;20217;-70
2022/03/20 01:00:08;;;;;;;2.50;2.13;;;4.90;99.90;;;;;;5035124;28;20541;-70
2022/03/20 01:02:42;;;;;;;0.70;0.60;;;4.80;99.90;;;;;;5034800;28;20191;-70
2022/03/20 01:05:09;;;;;;;2.70;0.87;;;4.80;99.90;;;;;;5014916;28;20463;-70
2022/03/20 01:07:36;;;;;;;14.80;1.40;;;4.80;99.90;;;;;;5015216;28;20414;-70
2022/03/20 01:10:04;;;;;;;1.67;1.57;;;4.70;99.90;;;;;;5015062;28;20411;-70
2022/03/20 01:12:30;;;;;;;0.80;0.80;;;4.70;99.90;;;;;;5025973;28;20919;-70
2022/03/20 01:14:55;;;;;;;2.60;1.90;;;4.70;99.90;;;;;;5034046;28;20442;-70
2022/03/20 01:17:21;;;;;;;0.70;0.50;;;4.70;99.90;;;;;;5034835;28;20409;-70
2022/03/20 01:19:47;;;;;;;0.90;0.77;;;4.60;99.90;;;;;;5034891;28;20214;-71
2022/03/20 01:22:12;;;;;;;0.90;0.70;;;4.60;99.90;;;;;;5034471;28;20187;-70
2022/03/20 01:24:38;;;;;;;0.70;0.50;;;4.60;99.90;;;;;;5034420;28;20645;-70
2022/03/20 01:27:04;;;;;;;0.70;0.60;;;4.70;99.90;;;;;;5034439;28;20254;-70
2022/03/20 01:29:30;;;;;;;0.70;0.60;;;4.70;99.90;;;;;;5034677;28;20255;-70
2022/03/20 01:31:56;;;;;;;1.33;1.23;;;4.70;99.90;;;;;;5034533;28;20490;-70
2022/03/20 01:34:21;;;;;;;1.63;1.33;;;4.70;99.90;;;;;;5033836;28;20992;-70
2022/03/20 01:36:47;;;;;;;0.70;0.50;;;4.70;99.90;;;;;;5034233;28;20263;-70
2022/03/20 01:39:13;;;;;;;0.80;0.80;;;4.80;99.90;;;;;;5034314;28;20175;-70
2022/03/20 01:41:38;;;;;;;1.10;1.00;;;4.80;99.90;;;;;;5034456;28;20402;-70
2022/03/20 01:44:04;;;;;;;1.33;0.93;;;4.80;99.90;;;;;;5034057;28;20196;-70
2022/03/20 01:46:33;;;;;;;0.93;0.93;;;4.90;99.90;;;;;;5034393;28;20187;-70
2022/03/20 01:48:58;;;;;;;0.93;0.70;;;5.00;99.90;;;;;;5034033;28;20640;-70
2022/03/20 01:54:13;;;;;;;0.80;0.70;;;5.20;99.90;;;;;;5033676;28;20266;-71
2022/03/20 01:56:44;;;;;;;0.83;0.80;;;5.30;99.90;;;;;;5034244;28;20919;-70
2022/03/20 01:59:09;;;;;;;0.80;0.80;;;5.40;99.90;;;;;;5034170;28;20413;-70
2022/03/20 02:01:35;;;;;;;1.93;1.80;;;5.40;99.90;;;;;;5033775;28;20426;-70
2022/03/20 02:04:00;;;;;;;2.63;1.27;;;5.50;99.90;;;;;;5033793;28;20195;-70
2022/03/20 02:06:26;;;;;;;1.13;1.03;;;5.50;99.90;;;;;;5033721;28;20186;-70
2022/03/20 02:08:56;;;;;;;1.10;1.00;;;5.50;99.90;;;;;;5033895;28;20565;-70
2022/03/20 02:11:25;;;;;;;0.70;0.60;;;5.50;99.90;;;;;;5033698;28;20446;-70
2022/03/20 02:13:51;;;;;;;0.93;0.90;;;5.50;99.90;;;;;;5033229;28;20461;-70
2022/03/20 02:16:17;;;;;;;0.70;0.50;;;5.40;99.90;;;;;;5033884;28;20409;-70
2022/03/20 02:18:43;;;;;;;1.13;1.03;;;5.40;99.90;;;;;;5033718;28;20469;-70
2022/03/20 02:21:09;;;;;;;1.00;0.70;;;5.40;99.90;;;;;;5033698;28;20629;-70
2022/03/20 02:23:34;;;;;;;0.70;0.50;;;5.30;99.90;;;;;;5033198;28;20406;-70
2022/03/20 02:26:03;;;;;;;1.30;1.20;;;5.30;99.90;;;;;;5033351;28;20176;-70
2022/03/20 02:28:29;;;;;;;2.50;2.30;;;5.30;99.90;;;;;;5033513;28;20600;-70
2022/03/20 02:30:54;;;;;;;0.70;0.60;;;5.20;99.90;;;;;;5033462;28;20538;-70
2022/03/20 02:33:23;;;;;;;1.67;1.57;;;5.20;99.90;;;;;;5032930;28;20437;-71
2022/03/20 02:35:49;;;;;;;1.37;1.27;;;5.10;99.90;;;;;;5033217;28;20190;-70
2022/03/20 02:38:18;;;;;;;1.70;1.60;;;5.00;99.90;;;;;;5033244;28;20679;-70
2022/03/20 02:40:44;;;;;;;0.70;0.50;;;4.90;99.90;;;;;;5033286;28;20406;-70
2022/03/20 02:43:10;;;;;;;0.70;0.50;;;4.90;99.90;;;;;;5033136;28;20403;-70
2022/03/20 02:45:36;;;;;;;2.20;2.00;;;4.80;99.90;;;;;;5032880;28;20518;-70
2022/03/20 02:48:06;;;;;;;0.70;0.53;;;4.80;99.90;;;;;;5032129;28;20167;-70
2022/03/20 02:50:37;;;;;;;0.70;0.50;;;4.70;99.90;;;;;;5032726;28;20446;-70
2022/03/20 02:53:14;;;;;;;0.70;0.60;;;4.70;99.90;;;;;;5033121;28;20502;-70
2022/03/20 02:55:42;;;;;;;3.17;1.50;;;4.70;99.90;;;;;;5032428;28;20867;-71
2022/03/20 02:58:13;;;;;;;1.40;1.30;;;4.60;99.90;;;;;;5032996;28;20409;-70
2022/03/20 03:00:41;;;;;;;0.80;0.70;;;4.60;99.90;;;;;;5032724;28;20461;-70
2022/03/20 03:03:11;;;;;;;1.30;1.20;;;4.60;99.90;;;;;;5032596;28;20514;-70
2022/03/20 03:05:38;;;;;;;1.33;1.23;;;4.60;99.90;;;;;;5032700;28;20452;-70
2022/03/20 03:10:57;;;;;;;0.70;0.60;;;4.60;99.90;;;;;;5032837;28;20499;-70
2022/03/20 03:13:36;;;;;;;0.77;0.57;;;4.60;99.90;;;;;;5032338;28;20423;-70
2022/03/20 03:16:10;;;;;;;1.03;0.93;;;4.50;99.90;;;;;;5032673;28;20931;-70
2022/03/20 03:18:37;;;;;;;1.77;1.37;;;4.50;99.90;;;;;;5032464;28;20398;-70
2022/03/20 03:21:03;;;;;;;1.67;1.57;;;4.50;99.90;;;;;;5032559;28;20409;-70
2022/03/20 03:23:29;;;;;;;0.70;0.50;;;4.40;99.90;;;;;;5031926;28;20425;-70
2022/03/20 03:25:55;;;;;;;0.83;0.83;;;4.40;99.90;;;;;;5030318;28;20430;-70
2022/03/20 03:28:23;;;;;;;0.70;0.50;;;4.40;99.90;;;;;;5031380;28;20930;-70
2022/03/20 03:30:49;;;;;;;0.70;0.50;;;4.40;99.90;;;;;;5032294;28;20458;-70
2022/03/20 03:33:17;;;;;;;13.57;1.37;;;4.30;99.90;;;;;;5032341;28;20771;-70
2022/03/20 03:35:46;;;;;;;1.20;0.83;;;4.30;99.90;;;;;;5031822;28;20184;-70
2022/03/20 03:38:19;;;;;;;1.20;0.83;;;4.30;99.90;;;;;;5032147;28;20745;-70
2022/03/20 03:40:47;;;;;;;0.80;0.70;;;4.20;99.90;;;;;;5032244;28;20413;-70
2022/03/20 03:43:15;;;;;;;1.77;1.07;;;4.20;99.90;;;;;;5032234;28;20918;-70
2022/03/20 03:45:41;;;;;;;1.47;1.37;;;4.10;99.90;;;;;;5031621;28;20434;-70
2022/03/20 03:48:11;;;;;;;0.80;0.70;;;4.10;99.90;;;;;;5031964;28;20499;-70
2022/03/20 03:50:39;;;;;;;1.33;1.10;;;4.00;99.90;;;;;;5030688;28;20478;-70
2022/03/20 03:53:05;;;;;;;0.80;0.70;;;4.00;99.90;;;;;;5031763;28;20425;-71
2022/03/20 03:55:32;;;;;;;0.70;0.50;;;3.90;99.90;;;;;;5031689;28;20508;-70
2022/03/20 03:57:58;;;;;;;0.70;0.50;;;3.90;99.90;;;;;;5031699;28;20457;-70
2022/03/20 04:00:24;;;;;;;0.70;0.50;;;3.80;99.90;;;;;;5031730;28;20487;-70
2022/03/20 04:02:50;;;;;;;0.80;0.70;;;3.80;99.90;;;;;;5032010;28;20171;-70
2022/03/20 04:05:17;;;;;;;0.70;0.50;;;3.70;99.90;;;;;;5031415;28;20520;-70
2022/03/20 04:07:47;;;;;;;0.70;0.50;;;3.60;99.90;;;;;;5031951;28;20467;-70
2022/03/20 04:10:15;;;;;;;1.47;1.13;;;3.60;99.90;;;;;;5032047;28;20398;-70
2022/03/20 04:12:41;;;;;;;4.60;1.23;;;3.50;99.90;;;;;;5031598;28;20459;-70
2022/03/20 04:15:14;;;;;;;1.13;1.00;;;3.50;99.90;;;;;;5031511;28;20461;-70
2022/03/20 04:17:40;;;;;;;2.60;1.83;;;3.40;99.90;;;;;;5031887;28;20167;-70
2022/03/20 04:20:14;;;;;;;0.70;0.50;;;3.40;99.90;;;;;;5031555;28;20492;-69
2022/03/20 04:23:42;;;;;;;0.70;0.50;;;3.30;99.90;;;;;;5031591;28;20417;-70
2022/03/20 04:25:27;;;;;;;1.03;0.90;;;3.30;99.90;;;;;;5031337;28;20431;-70
2022/03/20 04:27:56;;;;;;;0.70;0.50;;;3.20;99.90;;;;;;5031728;28;20407;-70
2022/03/20 04:30:24;;;;;;;1.10;1.07;;;3.20;99.90;;;;;;5031642;28;20191;-70
2022/03/20 04:32:53;;;;;;;0.70;0.50;;;3.10;99.90;;;;;;5031500;28;20919;-70
2022/03/20 04:35:23;;;;;;;0.70;0.50;;;3.10;99.90;;;;;;5031101;28;20430;-69
2022/03/20 04:37:50;;;;;;;1.67;1.57;;;3.00;99.90;;;;;;5031668;28;20493;-70
2022/03/20 04:40:15;;;;;;;2.00;1.90;;;3.00;99.90;;;;;;5031374;28;20468;-70
2022/03/20 04:42:41;;;;;;;0.70;0.50;;;3.00;99.90;;;;;;5031374;28;20421;-70
2022/03/20 04:45:07;;;;;;;0.70;0.50;;;2.90;99.90;;;;;;5031248;28;20252;-70
2022/03/20 04:58:29;;;;;;;0.70;0.50;;;2.80;99.90;;;;;;5031373;28;20799;-70
2022/03/20 05:00:55;;;;;;;0.70;0.50;;;2.80;99.90;;;;;;5031329;28;20410;-70
2022/03/20 05:03:21;;;;;;;0.70;0.50;;;2.90;99.90;;;;;;5031055;28;20267;-69
2022/03/20 05:05:46;;;;;;;0.93;0.83;;;2.90;99.90;;;;;;5030964;28;20267;-70
2022/03/20 05:08:12;;;;;;;0.70;0.50;;;3.00;99.90;;;;;;5031415;28;20422;-70
2022/03/20 05:13:22;;;;;;;0.70;0.60;;;3.10;99.90;;;;;;5034878;28;20179;-70
2022/03/20 05:15:48;;;;;;;3.13;2.93;;;3.20;99.90;;;;;;5034402;28;20421;-70
2022/03/20 05:18:14;;;;;;;1.73;1.53;;;3.30;99.90;;;;;;5034738;28;20221;-70
2022/03/20 05:20:41;;;;;;;0.70;0.50;;;3.50;99.90;;;;;;5034879;28;20168;-70
2022/03/20 05:23:06;;;;;;;1.43;1.00;;;3.60;99.90;;;;;;5034512;28;20429;-70
2022/03/20 05:25:32;;;;;;;0.80;0.80;;;3.70;99.90;;;;;;5034170;28;20461;-70
2022/03/20 05:27:58;;;;;;;1.33;1.23;;;3.80;99.90;;;;;;5034351;28;20550;-70
2022/03/20 05:30:24;;;;;;;0.80;0.73;;;3.90;99.90;;;;;;5034537;28;20648;-70
2022/03/20 05:32:50;;;;;;;0.80;0.70;;;4.00;99.90;;;;;;5034536;28;20894;-70
2022/03/20 05:35:16;;;;;;;1.53;1.30;;;4.10;99.90;;;;;;5034234;28;20441;-70
2022/03/20 05:37:43;;;;;;;2.60;2.40;;;4.20;99.90;;;;;;5034357;28;20174;-70
2022/03/20 05:40:09;;;;;;;0.70;0.50;;;4.30;99.90;;;;;;5034456;28;20430;-70
2022/03/20 05:42:36;;;;;;;0.80;0.60;;;4.40;99.90;;;;;;5034191;28;20414;-70
2022/03/20 05:45:02;;;;;;;1.77;1.67;;;4.50;99.90;;;;;;5033791;28;20521;-70
2022/03/20 05:47:32;;;;;;;0.70;0.60;;;4.60;99.90;;;;;;5034312;28;20444;-70
2022/03/20 05:50:01;;;;;;;2.10;1.93;;;4.60;99.90;;;;;;5034032;28;20434;-70
2022/03/20 05:52:29;;;;;;;0.83;0.70;;;4.70;99.90;;;;;;5034205;28;20568;-70
2022/03/20 05:54:55;;;;;;;0.70;0.50;;;4.80;99.90;;;;;;5033597;28;20434;-70
2022/03/20 06:00:06;;;;;;;0.70;0.50;;;4.90;99.90;;;;;;5033731;28;20229;-70
2022/03/20 06:02:31;;;;;;;0.70;0.50;;;5.00;99.90;;;;;;5033994;28;20821;-70
2022/03/20 06:04:57;;;;;;;1.77;1.33;;;5.10;99.90;;;;;;5033686;28;20553;-70
2022/03/20 06:07:22;;;;;;;0.90;0.73;;;5.20;99.90;;;;;;5033969;28;20164;-70
2022/03/20 06:09:48;;;;;;;0.70;0.70;;;5.40;99.90;;;;;;5033711;28;20186;-70
2022/03/20 06:12:14;;;;;;;0.87;0.60;;;5.50;99.90;;;;;;5033774;28;20198;-70
2022/03/20 06:14:39;;;;;;;0.70;0.50;;;5.70;99.90;;;;;;5033264;28;20531;-70
2022/03/20 06:17:09;;;;;;;7.03;2.40;;;5.90;99.90;;;;;;5033741;28;20167;-70
2022/03/20 06:19:36;;;;;;;1.57;0.60;;;6.00;99.90;;;;;;5033327;28;20167;-70
2022/03/20 06:22:02;;;;;;;2.50;2.17;;;6.10;99.90;;;;;;5033471;28;20412;-70
2022/03/20 06:24:27;;;;;;;1.53;1.43;;;6.20;99.90;;;;;;5032937;28;20501;-71
2022/03/20 06:26:53;;;;;;;1.30;1.20;;;6.30;99.90;;;;;;5033448;28;20202;-70
2022/03/20 06:29:19;;;;;;;1.83;1.37;;;6.40;99.90;;;;;;5033389;28;20218;-70
2022/03/20 06:31:48;;;;;;;1.03;0.60;;;6.40;99.90;;;;;;5033405;28;20210;-70
2022/03/20 06:34:14;;;;;;;0.70;0.50;;;6.50;99.90;;;;;;5032786;28;20597;-70
2022/03/20 06:36:40;;;;;;;1.37;0.80;;;6.60;99.90;;;;;;5032982;28;20418;-70
2022/03/20 06:39:05;;;;;;;4.00;0.80;;;6.70;99.90;;;;;;5033288;28;20398;-70
2022/03/20 06:41:31;;;;;;;0.70;0.50;;;6.70;99.60;;;;;;5033266;28;20230;-70
2022/03/20 06:43:56;;;;;;;1.53;1.37;;;6.80;98.20;;;;;;5032656;28;20195;-70
2022/03/20 06:46:22;;;;;;;5.93;1.07;;;7.00;97.20;;;;;;5033221;28;20537;-70
2022/03/20 06:48:47;;;;;;;2.03;1.80;;;7.10;96.20;;;;;;5032748;28;20217;-70
2022/03/20 06:51:15;;;;;;;12.70;1.73;;;7.20;95.20;;;;;;5033029;28;20196;-70
2022/03/20 06:53:41;;;;;;;2.00;1.70;;;7.40;94.80;;;;;;5032670;28;20183;-70
2022/03/20 06:56:07;;;;;;;3.77;2.10;;;7.60;93.40;;;;;;5032535;28;20938;-70
2022/03/20 06:58:34;;;;;;;2.90;2.30;;;7.80;92.40;;;;;;5032964;28;20410;-70
2022/03/20 07:01:00;;;;;;;3.57;2.10;;;8.00;92.00;;;;;;5032453;28;20425;-70
2022/03/20 07:03:25;;;;;;;2.93;2.63;;;8.20;90.10;;;;;;5032614;28;20778;-70
2022/03/20 07:05:51;;;;;;;1.40;1.30;;;8.30;88.70;;;;;;5032573;28;20168;-71
2022/03/20 07:08:16;;;;;;;2.53;1.83;;;8.50;87.50;;;;;;5032579;28;20187;-71
2022/03/20 07:10:42;;;;;;;1.57;1.47;;;8.70;86.30;;;;;;5032511;28;20541;-70
2022/03/20 07:15:57;;;;;;;3.73;3.43;;;9.20;81.70;;;;;;5032399;28;20460;-70
2022/03/20 07:18:23;;;;;;;3.87;1.47;;;9.40;80.00;;;;;;5032581;28;20771;-70
2022/03/20 07:20:50;;;;;;;3.90;3.60;;;9.50;77.00;;;;;;5032193;28;20426;-71
2022/03/20 07:23:16;;;;;;;1.50;1.40;;;9.60;77.00;;;;;;5032500;28;20402;-70
2022/03/20 07:31:13;;;;;;;0.80;0.80;;;9.70;72.80;;;;;;5032408;28;20445;-70
2022/03/20 07:33:39;;;;;;;2.70;1.23;;;9.70;72.80;;;;;;5031576;28;20795;-70
2022/03/20 07:36:06;;;;;;;10.10;2.47;;;10.00;72.80;;;;;;5031911;28;20219;-70
2022/03/20 07:38:32;;;;;;;2.30;1.77;;;10.60;72.20;;;;;;5032325;28;20409;-71
2022/03/20 07:40:57;;;;;;;3.37;2.30;;;11.20;68.60;;;;;;5032246;28;20951;-70
2022/03/20 07:43:23;;;;;;;2.23;2.03;;;11.70;66.90;;;;;;5032214;28;20914;-71
2022/03/20 07:45:50;;;;;;;7.13;3.50;;;12.20;64.80;;;;;;5031960;28;20168;-71
2022/03/20 07:48:15;;;;;;;6.03;3.17;;;12.70;63.10;;;;;;5031777;28;20187;-70
2022/03/20 07:50:41;;;;;;;3.83;1.80;;;13.10;59.60;;;;;;5031952;28;20493;-71
2022/03/20 07:53:07;;;;;;;3.43;2.60;;;13.50;57.70;;;;;;5031920;28;20179;-70
2022/03/20 07:55:34;;;;;;;11.43;3.03;;;13.90;57.40;;;;;;5031608;28;20446;-71
2022/03/20 07:57:59;;;;;;;3.03;2.83;;;14.20;55.80;;;;;;5031919;28;20517;-71
2022/03/20 08:00:25;;;;;;;2.93;2.10;;;14.60;54.90;;;;;;5032024;28;20410;-71
2022/03/20 08:02:53;;;;;;;1.40;1.30;;;14.90;53.80;;;;;;5032004;28;20168;-70
2022/03/20 08:05:20;;;;;;;5.23;4.77;;;15.40;52.70;;;;;;5031686;28;20692;-71
2022/03/20 08:07:46;;;;;;;3.17;2.50;;;15.90;51.60;;;;;;5031701;28;20492;-69
2022/03/20 08:10:13;;;;;;;4.40;4.00;;;16.40;51.30;;;;;;5031842;28;20449;-69
2022/03/20 08:12:39;;;;;;;2.93;2.60;;;16.90;50.60;;;;;;5031603;28;20824;-69
2022/03/20 08:15:06;;;;;;;2.40;2.20;;;17.20;48.40;;;;;;5031330;28;20513;-69
2022/03/20 08:17:32;;;;;;;7.90;3.43;;;17.30;46.90;;;;;;5031595;28;20425;-69
2022/03/20 08:19:58;;;;;;;5.57;3.20;;;17.70;47.60;;;;;;5031591;28;20418;-69
2022/03/20 08:22:27;;;;;;;6.93;4.27;;;18.00;46.90;;;;;;5031773;28;20840;-69
2022/03/20 08:24:53;;;;;;;6.20;4.00;;;18.20;45.60;;;;;;5031397;28;20434;-69
2022/03/20 08:27:20;;;;;;;4.57;2.73;;;18.30;46.00;;;;;;5031784;28;20424;-69
2022/03/20 08:29:46;;;;;;;4.73;3.80;;;18.60;45.70;;;;;;5030688;28;20241;-69
2022/03/20 08:32:12;;;;;;;5.13;2.87;;;18.60;44.80;;;;;;5031383;28;20450;-69
2022/03/20 08:34:37;;;;;;;6.63;4.73;;;18.80;44.40;;;;;;5031323;28;20219;-69
2022/03/20 08:37:03;;;;;;;9.07;6.27;;;19.00;44.00;;;;;;5031669;28;20198;-69
2022/03/20 08:39:28;;;;;;;8.53;4.03;;;19.10;43.50;;;;;;5031732;28;20172;-69
2022/03/20 08:41:54;;;;;;;8.80;3.50;;;19.20;43.50;;;;;;5031675;28;20244;-71
2022/03/20 08:44:20;;;;;;;2.97;2.30;;;19.30;42.80;;;;;;5030661;28;20273;-68
2022/03/20 08:46:45;;;;;;;6.77;4.80;;;19.60;43.00;;;;;;5035062;28;20446;-68
2022/03/20 08:49:11;;;;;;;6.77;4.10;;;19.90;42.60;;;;;;5035228;28;20196;-68
2022/03/20 08:51:40;;;;;;;5.57;4.30;;;20.00;41.90;;;;;;5035176;28;20203;-69
2022/03/20 08:54:07;;;;;;;9.73;6.03;;;20.50;41.60;;;;;;5034916;28;20290;-68
2022/03/20 08:56:33;;;;;;;4.37;3.10;;;20.90;41.80;;;;;;5035089;28;20418;-69
2022/03/20 08:58:59;;;;;;;6.67;3.90;;;21.00;41.50;;;;;;5033942;28;20417;-69
2022/03/20 09:01:24;;;;;;;8.77;3.90;;;21.20;40.70;;;;;;5035187;28;20406;-69
2022/03/20 09:03:50;;;;;;;2.87;2.67;;;21.50;40.60;;;;;;5035050;28;20794;-69
2022/03/20 09:06:20;;;;;;;12.30;4.80;;;21.60;41.10;;;;;;5034827;28;20183;-70
2022/03/20 09:08:46;;;;;;;6.77;3.83;;;22.10;40.20;;;;;;5034584;28;20319;-69
2022/03/20 09:11:12;;;;;;;9.10;5.10;;;22.20;38.50;;;;;;5033661;28;20541;-69
2022/03/20 09:13:38;;;;;;;5.20;4.70;;;22.60;40.10;;;;;;5034813;28;20845;-69
2022/03/20 09:19:00;;;;;;;4.73;3.67;;;23.40;38.70;;;;;;5035201;28;20404;-70
2022/03/20 09:21:30;;;;;;;7.20;5.43;;;23.80;38.00;;;;;;5034711;28;20812;-70
2022/03/20 09:23:58;;;;;;;9.10;5.30;;;23.80;37.00;;;;;;5034675;28;20430;-69
2022/03/20 09:26:24;;;;;;;5.93;4.13;;;23.50;37.30;;;;;;5034419;28;20422;-70
2022/03/20 09:28:50;;;;;;;9.60;4.03;;;22.70;36.70;;;;;;5034501;28;20429;-72
2022/03/20 09:31:16;;;;;;;6.67;5.93;;;21.60;37.40;;;;;;5034510;28;20469;-68
2022/03/20 09:33:42;;;;;;;8.53;4.97;;;20.30;38.60;;;;;;5034224;28;20442;-69
2022/03/20 09:36:08;;;;;;;5.90;4.07;;;19.30;39.90;;;;;;5033878;28;20418;-70
2022/03/20 09:38:34;;;;;;;8.40;4.20;;;18.30;40.80;;;;;;5034357;28;20430;-69
2022/03/20 09:41:09;;;;;;;5.20;3.50;;;17.40;41.50;;;;;;5032684;28;20213;-69
2022/03/20 09:43:39;;;;;;;12.43;3.37;;;16.90;43.60;;;;;;5034358;28;20415;-69
2022/03/20 09:46:05;;;;;;;6.70;3.70;;;16.70;44.40;;;;;;5033917;28;20430;-70
2022/03/20 09:48:31;;;;;;;5.27;3.07;;;16.50;45.00;;;;;;5034315;28;20775;-71
2022/03/20 09:50:58;;;;;;;8.33;4.73;;;16.40;44.50;;;;;;5034234;28;20455;-69
2022/03/20 09:53:24;;;;;;;2.43;2.20;;;16.20;45.00;;;;;;5034067;28;20995;-70
2022/03/20 09:55:51;;;;;;;6.07;4.93;;;16.30;45.90;;;;;;5033327;28;20516;-70
2022/03/20 09:58:16;;;;;;;9.27;5.20;;;17.10;46.50;;;;;;5033946;28;20845;-70
2022/03/20 10:00:42;;;;;;;6.30;5.70;;;17.90;44.90;;;;;;5034081;28;20502;-70
2022/03/20 10:03:15;;;;;;;4.83;3.40;;;18.80;44.50;;;;;;5033766;28;20242;-70
2022/03/20 10:05:41;;;;;;;6.83;6.20;;;19.20;42.70;;;;;;5033701;28;20210;-70
2022/03/20 10:08:17;;;;;;;7.70;4.40;;;18.80;41.10;;;;;;5033598;28;20411;-69
2022/03/20 10:10:42;;;;;;;9.63;3.30;;;19.40;43.10;;;;;;5033965;28;20241;-70
2022/03/20 10:13:13;;;;;;;13.40;4.57;;;19.90;41.40;;;;;;5033749;28;20924;-70
2022/03/20 10:15:43;;;;;;;8.60;5.27;;;20.60;41.10;;;;;;5033533;28;20853;-70
2022/03/20 10:18:11;;;;;;;4.67;4.13;;;21.00;40.40;;;;;;5033765;28;20452;-70
2022/03/20 10:20:44;;;;;;;3.17;2.87;;;21.00;39.70;;;;;;5033443;28;20429;-70
2022/03/20 10:23:31;;;;;;;5.90;3.83;;;21.20;40.00;;;;;;5033612;28;20445;-70
2022/03/20 10:25:57;;;;;;;7.80;5.33;;;20.60;40.10;;;;;;5033210;28;20421;-70
2022/03/20 10:28:23;;;;;;;6.07;4.87;;;20.00;40.00;;;;;;5033572;28;20429;-70
2022/03/20 10:30:57;;;;;;;4.03;2.70;;;19.20;40.30;;;;;;5033217;28;20442;-70
2022/03/20 10:33:22;;;;;;;6.93;4.00;;;18.80;41.30;;;;;;5033205;28;20167;-70
2022/03/20 10:36:09;;;;;;;6.27;3.77;;;18.50;41.90;;;;;;5033152;28;20410;-70
2022/03/20 10:38:39;;;;;;;8.70;5.10;;;19.00;42.40;;;;;;5033464;28;20644;-70
2022/03/20 10:41:39;;;;;;;5.37;4.20;;;19.80;43.00;;;;;;5032940;28;20418;-70
2022/03/20 10:44:13;;;;;;;6.03;4.00;;;20.50;41.20;;;;;;5032447;28;20484;-69
2022/03/20 10:46:39;;;;;;;6.30;4.30;;;20.70;40.80;;;;;;5032885;28;20771;-70
2022/03/20 10:49:06;;;;;;;7.37;4.57;;;20.70;40.10;;;;;;5033250;28;20488;-70
2022/03/20 10:51:39;;;;;;;6.90;3.13;;;20.00;40.40;;;;;;5032828;28;20438;-70
2022/03/20 10:54:11;;;;;;;7.33;3.87;;;19.50;41.00;;;;;;5032714;28;20442;-70
2022/03/20 10:56:57;;;;;;;9.80;5.37;;;19.50;42.00;;;;;;5032893;28;20891;-70
2022/03/20 10:59:29;;;;;;;6.50;4.10;;;20.10;41.60;;;;;;5032762;28;20919;-70
2022/03/20 11:01:55;;;;;;;9.10;3.40;;;20.90;41.20;;;;;;5032976;28;20406;-70
2022/03/20 11:04:21;;;;;;;5.53;3.80;;;21.60;41.00;;;;;;5032051;28;20446;-70
2022/03/20 11:06:50;;;;;;;8.50;3.80;;;22.20;40.40;;;;;;5032882;28;20199;-70
2022/03/20 11:09:16;;;;;;;6.17;5.47;;;22.00;39.80;;;;;;5032051;28;20603;-70
2022/03/20 11:11:50;;;;;;;5.33;4.83;;;22.30;39.90;;;;;;5032521;28;20466;-69
2022/03/20 11:14:21;;;;;;;6.27;4.70;;;22.30;40.10;;;;;;5032513;28;20926;-71
2022/03/20 11:16:51;;;;;;;9.10;6.80;;;21.30;39.80;;;;;;5032277;28;20522;-68
2022/03/20 11:19:23;;;;;;;6.13;3.53;;;20.30;41.40;;;;;;5032594;28;20402;-69
2022/03/20 11:21:52;;;;;;;6.00;3.70;;;19.50;42.20;;;;;;5032605;28;20477;-70
2022/03/20 11:24:18;;;;;;;4.97;3.17;;;19.50;43.00;;;;;;5032307;28;20433;-69
2022/03/20 11:26:49;;;;;;;4.43;4.03;;;19.40;43.80;;;;;;5032111;28;20472;-69
2022/03/20 11:29:18;;;;;;;9.73;3.63;;;19.10;43.50;;;;;;5032343;28;20480;-69
2022/03/20 11:31:44;;;;;;;6.13;4.47;;;18.40;44.50;;;;;;5032155;28;20519;-68
2022/03/20 11:34:12;;;;;;;7.40;6.03;;;17.60;45.50;;;;;;5032260;28;20441;-69
2022/03/20 11:37:02;;;;;;;3.90;3.27;;;16.80;46.30;;;;;;5032013;28;20399;-69
2022/03/20 11:39:28;;;;;;;6.33;3.37;;;16.20;47.80;;;;;;5012530;28;20403;-70
2022/03/20 11:42:19;;;;;;;5.60;4.03;;;15.70;49.90;;;;;;5011329;28;20453;-69
2022/03/20 11:44:53;;;;;;;5.80;5.30;;;15.20;50.80;;;;;;5030482;28;20202;-69
2022/03/20 11:47:21;;;;;;;3.50;1.77;;;14.70;51.90;;;;;;5032226;28;20910;-69
2022/03/20 11:50:06;;;;;;;7.43;4.00;;;14.30;52.00;;;;;;5031835;28;20422;-69
2022/03/20 11:52:58;;;;;;;7.60;3.57;;;14.20;52.90;;;;;;5032084;28;20457;-69
2022/03/20 11:55:29;;;;;;;3.20;3.00;;;13.80;53.90;;;;;;5031656;28;20460;-69
2022/03/20 11:57:56;;;;;;;4.17;3.87;;;13.50;55.60;;;;;;5031883;28;20399;-70
2022/03/20 12:00:28;;;;;;;4.03;2.30;;;13.30;56.30;;;;;;5031584;28;20464;-70
2022/03/20 12:03:11;;;;;;;4.83;3.23;;;13.00;57.50;;;;;;5031938;28;20403;-70
2022/03/20 12:05:48;;;;;;;2.03;1.70;;;12.90;58.40;;;;;;5031604;28;20539;-70
2022/03/20 12:08:16;;;;;;;3.80;3.27;;;12.80;59.30;;;;;;5031743;28;20398;-70
2022/03/20 12:11:17;;;;;;;2.60;2.07;;;12.60;61.00;;;;;;5031814;28;20823;-70
2022/03/20 12:14:01;;;;;;;17.40;5.67;;;12.40;63.70;;;;;;5031564;28;20440;-70
2022/03/20 12:16:45;;;;;;;2.03;1.83;;;12.30;65.50;;;;;;5031204;28;20417;-69
2022/03/20 12:19:15;;;;;;;3.07;2.77;;;12.20;67.80;;;;;;5032830;28;20413;-70
2022/03/20 12:22:10;;;;;;;2.33;1.50;;;12.10;70.10;;;;;;5035731;28;20417;-70
2022/03/20 12:24:36;;;;;;;2.23;1.63;;;12.10;72.90;;;;;;5035560;28;20434;-70
2022/03/20 12:27:22;;;;;;;3.07;2.83;;;12.10;75.70;;;;;;5035907;28;20398;-70
2022/03/20 12:30:10;;;;;;;7.13;2.77;;;12.20;79.90;;;;;;5035673;28;20199;-70
2022/03/20 12:32:50;;;;;;;1.57;1.43;;;12.30;87.60;;;;;;5035529;28;20460;-70
2022/03/20 12:35:28;;;;;;;4.50;2.90;;;12.20;93.60;;;;;;5034049;28;20430;-70
2022/03/20 12:37:55;;;;;;;3.17;2.80;;;12.10;99.90;;;;;;5035615;28;20394;-70
2022/03/20 12:40:32;;;;;;;5.07;2.20;;;12.10;99.90;;;;;;5035615;28;20407;-70
2022/03/20 12:43:08;;;;;;;6.00;2.80;;;12.00;99.90;;;;;;5035175;28;20504;-70
2022/03/20 12:45:35;;;;;;;11.00;2.23;;;11.90;99.90;;;;;;5033948;28;20870;-70
2022/03/20 12:48:10;;;;;;;3.60;2.60;;;11.80;99.90;;;;;;5035220;28;20409;-70
2022/03/20 12:50:40;;;;;;;1.13;1.00;;;11.60;99.90;;;;;;5035297;28;20493;-70
2022/03/20 12:53:16;;;;;;;2.80;2.50;;;11.60;99.90;;;;;;5034815;28;20505;-70
2022/03/20 12:55:49;;;;;;;2.70;1.67;;;11.60;99.90;;;;;;5034997;28;20457;-70
2022/03/20 12:58:17;;;;;;;3.53;2.43;;;11.60;99.90;;;;;;5034119;28;20832;-70
2022/03/20 13:00:44;;;;;;;2.20;2.00;;;11.50;99.90;;;;;;5035184;28;20443;-70
2022/03/20 13:03:12;;;;;;;1.60;1.43;;;11.50;99.90;;;;;;5034906;28;20421;-70
2022/03/20 13:05:59;;;;;;;2.40;2.20;;;11.40;99.90;;;;;;5034740;28;20429;-70
2022/03/20 13:08:40;;;;;;;2.77;1.67;;;11.40;99.90;;;;;;5034988;28;20422;-70
2022/03/20 13:14:01;;;;;;;2.80;2.23;;;11.30;99.90;;;;;;5035210;28;20455;-70
2022/03/20 13:16:28;;;;;;;3.20;1.63;;;11.20;99.90;;;;;;5034541;28;20950;-70
2022/03/20 13:18:53;;;;;;;1.67;1.33;;;11.10;99.90;;;;;;5034965;28;20406;-70
2022/03/20 13:21:19;;;;;;;1.30;1.20;;;11.00;99.90;;;;;;5034996;28;20418;-70
2022/03/20 13:23:45;;;;;;;3.10;2.73;;;11.00;99.90;;;;;;5034948;28;20225;-69
2022/03/20 13:26:14;;;;;;;12.47;4.57;;;10.90;99.90;;;;;;5034263;28;20417;-70
2022/03/20 13:28:40;;;;;;;1.13;0.97;;;10.80;99.90;;;;;;5034781;28;20929;-70
2022/03/20 13:31:16;;;;;;;1.83;1.10;;;10.80;99.90;;;;;;5033441;28;20446;-70
2022/03/20 13:33:52;;;;;;;5.73;2.00;;;10.70;99.90;;;;;;5034498;28;20186;-70
2022/03/20 13:36:23;;;;;;;3.80;1.83;;;10.80;99.90;;;;;;5033931;28;20433;-70